sensor_id;sensor_type;location;lat;lon;timestamp;pressure;altitude;pressure_sealevel;temperature;humidity
79316;BME280;68779;50.036;19.964;2023-06-22T00:12:30;101869.94;;;22.28;71.11
79316;BME280;68779;50.036;19.964;2023-06-22T00:42:45;101854.45;;;21.98;74.76
79316;BME280;68779;50.036;19.964;2023-06-22T01:13:02;101815.23;;;22.58;72.17
79316;BME280;68779;50.036;19.964;2023-06-22T01:43:19;101841.91;;;20.62;80.67
79316;BME280;68779;50.036;19.964;2023-06-22T02:13:37;101839.30;;;20.61;79.94
79316;BME280;68779;50.036;19.964;2023-06-22T02:43:57;101871.10;;;21.02;78.07
79316;BME280;68779;50.036;19.964;2023-06-22T03:14:11;101865.34;;;21.70;73.47
79316;BME280;68779;50.036;19.964;2023-06-22T04:14:52;101918.13;;;21.54;73.54
79316;BME280;68779;50.036;19.964;2023-06-22T04:45:08;101942.34;;;21.89;72.93
79316;BME280;68779;50.036;19.964;2023-06-22T05:15:26;101960.38;;;22.50;71.08
79316;BME280;68779;50.036;19.964;2023-06-22T05:45:48;101966.07;;;23.20;69.32
79316;BME280;68779;50.036;19.964;2023-06-22T06:16:02;101991.98;;;23.76;68.40
79316;BME280;68779;50.036;19.964;2023-06-22T06:46:16;101989.59;;;24.82;66.18
79316;BME280;68779;50.036;19.964;2023-06-22T07:16:32;101972.34;;;25.59;64.47
79316;BME280;68779;50.036;19.964;2023-06-22T07:46:49;101955.38;;;25.80;63.51
79316;BME280;68779;50.036;19.964;2023-06-22T08:17:03;101974.73;;;27.21;60.14
79316;BME280;68779;50.036;19.964;2023-06-22T08:47:18;101986.54;;;27.97;55.83
79316;BME280;68779;50.036;19.964;2023-06-22T09:17:35;101978.73;;;28.06;55.76
79316;BME280;68779;50.036;19.964;2023-06-22T10:04:12;101978.77;;;27.56;55.41
79316;BME280;68779;50.036;19.964;2023-06-22T10:34:31;101970.10;;;27.40;56.55
79316;BME280;68779;50.036;19.964;2023-06-22T11:04:45;101913.93;;;28.09;53.98
79316;BME280;68779;50.036;19.964;2023-06-22T11:35:03;101900.12;;;28.44;52.41
79316;BME280;68779;50.036;19.964;2023-06-22T12:05:23;101876.43;;;28.76;50.96
79316;BME280;68779;50.036;19.964;2023-06-22T12:35:38;101850.43;;;31.75;43.38
79316;BME280;68779;50.036;19.964;2023-06-22T13:05:53;101814.38;;;32.37;41.30
79316;BME280;68779;50.036;19.964;2023-06-22T13:36:07;101806.91;;;32.26;40.41
79316;BME280;68779;50.036;19.964;2023-06-22T14:06:23;101789.04;;;32.37;42.00
79316;BME280;68779;50.036;19.964;2023-06-22T14:36:40;101773.70;;;34.37;37.22
79316;BME280;68779;50.036;19.964;2023-06-22T15:06:59;101748.56;;;38.30;31.27
79316;BME280;68779;50.036;19.964;2023-06-22T15:37:16;101744.21;;;37.25;32.53
79316;BME280;68779;50.036;19.964;2023-06-22T16:07:32;101747.57;;;33.85;37.06
79316;BME280;68779;50.036;19.964;2023-06-22T16:37:48;101754.45;;;31.12;43.18
79316;BME280;68779;50.036;19.964;2023-06-22T17:08:05;101743.13;;;30.41;43.61
79316;BME280;68779;50.036;19.964;2023-06-22T17:38:21;101721.85;;;29.60;45.51
79316;BME280;68779;50.036;19.964;2023-06-22T18:08:40;101697.46;;;29.21;46.94
79316;BME280;68779;50.036;19.964;2023-06-22T18:38:55;101702.27;;;28.32;48.84
79316;BME280;68779;50.036;19.964;2023-06-22T19:09:13;101725.94;;;27.89;50.71
79316;BME280;68779;50.036;19.964;2023-06-22T19:39:34;101738.90;;;26.12;56.10
79316;BME280;68779;50.036;19.964;2023-06-22T20:40:14;101712.24;;;25.34;58.11
79316;BME280;68779;50.036;19.964;2023-06-22T21:10:28;101672.34;;;24.89;59.97
79316;BME280;68779;50.036;19.964;2023-06-22T21:40:42;101659.78;;;24.21;62.46
79316;BME280;68779;50.036;19.964;2023-06-22T22:10:55;101631.30;;;23.80;64.01
79316;BME280;68779;50.036;19.964;2023-06-22T22:41:09;101584.02;;;23.47;65.59
79316;BME280;68779;50.036;19.964;2023-06-22T23:11:24;101545.30;;;23.19;66.55
79316;BME280;68779;50.036;19.964;2023-06-22T23:41:38;101511.92;;;23.00;67.01
